Česky Dansk Deutsch English Español Suomi Français Magyar Italiano Nederlands norsk Polski Português svenska Türkçe

 

Het Weer

Rayong (Thailand)

01:00, 31 juli 2016 (GMT)

NWNNE
WE
SWSSE
Home            
Rayong Chanthaburi Chon Buri Phetchaburi Hua Hin Prachin Buri Don Muang Prachuap Khirikhan Kanchanaburi Nakhon Ratchasima Siemreap Mergui Chumphon Chaiyaphum Nakhon Sawan Dawei Phnom-Penh / Pochentong Ranong Surat Thani Kompong-Cham Khon Kaen Roi Et Phitsanulok

Om een weerknop op uw website of weblog te plaatsen, copieer onderstaande code en plak die in uw pagina. In het eerste vakje staat HTML-code, in het tweede vakje UBB-code.


Add to Google

Details

Wind speed:2 bf, 4 kn, 2.1 m/s, 4.6 miles/h, 7.4 km/h
Wind direction:NW, 310°
Visibility: 9000 m, 9.0 km, 29528 ft, 5.6 miles
Clouds:Ein wenig bewölkt at 2000 ft, 610 m
Aufgelockert bewölkt at 10000 ft, 3048 m
Temperature:30°C, 86°F
Gefühlte Temperatur:33°C, 91°F
Dew-point:21°C, 70°F
Atmospheric pressure:1009 hPa, 756.8 mmHg, 29.80 inHg, 0.996 atm
Relative humidity:58.6 %
METAR:VTBU 310100Z 31004KT 9000 FEW020 SCT100 30/21 Q1009 NOSIG

Snelkoppelingen

Actuele weersinformatie van de hele wereld. Voeg locaties toe met het plus (+) symbool. Deze snelkoppelingen kunnen worden toegevoegd aan Google.

Lid van de Technetium groep

website free tracking
StatCounter NetStat W3C Validator

08-08-2020 05:44:21
astro.technetium.be money.technetium.be phote.technetium.be tafeltennistafel.technetium.be www.ligfiets.net